Time;durP1;ratioP1;P1;durP2;ratioP2;P2;SDS_P1;SDS_P2;PMS_P1;PMS_P2;Temp;Humidity;BMP_temperature;BMP_pressure;BME280_temperature;BME280_humidity;BME280_pressure;Samples;Min_cycle;Max_cycle;Signal;HPM_P1;HPM_P2
2024/01/25 00:02:17;;;;;;;66.40;9.20;;;10.60;99.90;;;;;;7284640;19;21059;-78
2024/01/25 00:04:43;;;;;;;59.40;9.13;;;10.60;99.90;;;;;;7287272;19;20186;-78
2024/01/25 00:07:09;;;;;;;59.93;9.27;;;10.60;99.90;;;;;;7309620;19;20203;-77
2024/01/25 00:09:35;;;;;;;66.70;9.67;;;10.50;99.90;;;;;;7287491;19;20192;-78
2024/01/25 00:12:01;;;;;;;64.43;9.10;;;10.50;99.90;;;;;;7288653;19;20206;-78
2024/01/25 00:14:27;;;;;;;79.40;10.73;;;10.50;99.90;;;;;;7287867;19;20247;-77
2024/01/25 00:16:52;;;;;;;71.93;9.23;;;10.50;99.90;;;;;;7287209;19;20597;-77
2024/01/25 00:19:18;;;;;;;60.37;8.53;;;10.40;99.90;;;;;;7286392;19;21108;-78
2024/01/25 00:21:44;;;;;;;76.87;8.87;;;10.40;99.90;;;;;;7285825;19;20181;-77
2024/01/25 00:24:13;;;;;;;70.53;9.03;;;10.50;99.90;;;;;;7307625;19;20184;-78
2024/01/25 00:26:38;;;;;;;63.20;9.03;;;10.40;99.90;;;;;;7308376;19;20188;-78
2024/01/25 00:29:04;;;;;;;66.67;8.23;;;10.40;99.90;;;;;;7286381;19;20192;-78
2024/01/25 00:31:30;;;;;;;65.27;9.77;;;10.30;99.90;;;;;;7287295;19;20607;-78
2024/01/25 00:33:57;;;;;;;62.73;9.50;;;10.30;99.90;;;;;;7284244;19;20271;-78
2024/01/25 00:36:24;;;;;;;65.00;8.50;;;10.30;99.90;;;;;;7286119;19;20198;-77
2024/01/25 00:38:50;;;;;;;72.27;9.00;;;10.30;99.90;;;;;;7286507;19;20182;-77
2024/01/25 00:41:19;;;;;;;72.90;9.10;;;10.20;99.90;;;;;;7284374;19;20212;-78
2024/01/25 00:43:45;;;;;;;71.47;8.83;;;10.20;99.90;;;;;;7287340;19;20650;-77
2024/01/25 00:46:12;;;;;;;69.87;9.40;;;10.10;99.90;;;;;;7291815;19;20188;-78
2024/01/25 00:48:39;;;;;;;64.83;8.53;;;10.10;99.90;;;;;;7308283;19;20189;-78
2024/01/25 00:51:07;;;;;;;65.30;9.40;;;10.10;99.90;;;;;;7288610;19;20186;-78
2024/01/25 00:53:34;;;;;;;64.97;9.37;;;10.10;99.90;;;;;;7286185;19;20256;-77
2024/01/25 00:56:00;;;;;;;79.63;11.00;;;10.10;99.90;;;;;;7287009;19;20205;-78
2024/01/25 00:58:26;;;;;;;53.67;7.87;;;10.20;99.90;;;;;;7286941;19;20203;-78
2024/01/25 01:00:52;;;;;;;64.03;8.73;;;10.30;99.90;;;;;;7286592;19;20195;-78
2024/01/25 01:03:21;;;;;;;66.93;9.67;;;10.30;99.90;;;;;;7285741;19;20217;-78
2024/01/25 01:05:47;;;;;;;67.13;10.10;;;10.40;99.90;;;;;;7285734;19;20194;-77
2024/01/25 01:08:13;;;;;;;66.87;9.63;;;10.40;99.90;;;;;;7285742;19;20209;-78
2024/01/25 01:10:38;;;;;;;77.27;9.10;;;10.40;99.90;;;;;;7307048;19;20569;-78
2024/01/25 01:13:04;;;;;;;72.93;8.50;;;10.40;99.90;;;;;;7283016;19;20192;-78
2024/01/25 01:15:30;;;;;;;65.97;9.27;;;10.40;99.90;;;;;;7284453;19;20621;-78
2024/01/25 01:17:56;;;;;;;76.23;9.67;;;10.20;99.90;;;;;;7284515;19;20294;-78
2024/01/25 01:20:21;;;;;;;55.40;8.87;;;10.20;99.90;;;;;;7283014;19;20260;-77
2024/01/25 01:22:47;;;;;;;64.23;9.37;;;10.10;99.90;;;;;;7285161;19;20668;-78
2024/01/25 01:25:13;;;;;;;75.97;9.13;;;10.10;99.90;;;;;;7284647;19;20229;-77
2024/01/25 01:27:38;;;;;;;62.13;8.40;;;9.90;99.90;;;;;;7306385;19;20203;-78
2024/01/25 01:30:05;;;;;;;63.23;8.20;;;9.90;99.90;;;;;;7285343;19;20191;-78
2024/01/25 01:32:30;;;;;;;56.53;7.53;;;9.80;99.90;;;;;;7284823;19;20204;-78
2024/01/25 01:34:56;;;;;;;60.87;8.40;;;9.70;99.90;;;;;;7286647;19;20203;-78
2024/01/25 01:37:22;;;;;;;68.53;8.90;;;9.70;99.90;;;;;;7284484;19;20216;-78
2024/01/25 01:39:47;;;;;;;68.07;9.53;;;9.70;99.90;;;;;;7282181;19;20199;-76
2024/01/25 01:42:13;;;;;;;69.13;9.10;;;9.70;99.90;;;;;;7284907;19;20187;-76
2024/01/25 01:44:39;;;;;;;63.53;7.73;;;9.70;99.90;;;;;;7306527;19;20195;-77
2024/01/25 01:47:05;;;;;;;56.10;8.40;;;9.70;99.90;;;;;;7284560;19;20179;-77
2024/01/25 01:49:30;;;;;;;66.80;8.77;;;9.60;99.90;;;;;;7284771;19;20702;-76
2024/01/25 01:51:56;;;;;;;54.93;7.77;;;9.60;99.90;;;;;;7283789;19;20661;-77
2024/01/25 01:54:23;;;;;;;65.83;8.30;;;9.60;99.90;;;;;;7283226;19;20612;-76
2024/01/25 01:56:49;;;;;;;62.33;8.40;;;9.50;99.90;;;;;;7283806;19;20231;-76
2024/01/25 01:59:16;;;;;;;72.67;8.80;;;9.50;99.90;;;;;;7283640;19;20519;-76
2024/01/25 02:01:42;;;;;;;64.23;8.77;;;9.50;99.90;;;;;;7288184;19;20804;-76
2024/01/25 02:04:07;;;;;;;76.37;8.90;;;9.50;99.90;;;;;;7304704;19;20195;-77
2024/01/25 02:06:34;;;;;;;76.07;9.20;;;9.50;99.90;;;;;;7282064;19;20641;-77
2024/01/25 02:08:59;;;;;;;66.57;9.07;;;9.50;99.90;;;;;;7283002;19;20288;-77
2024/01/25 02:11:26;;;;;;;61.50;8.03;;;9.40;99.90;;;;;;7284119;19;20550;-77
2024/01/25 02:13:52;;;;;;;57.63;7.63;;;9.30;99.90;;;;;;7283773;19;20192;-76
2024/01/25 02:16:18;;;;;;;57.83;8.00;;;9.40;99.90;;;;;;7283951;19;20201;-76
2024/01/25 02:18:44;;;;;;;63.20;9.30;;;9.30;99.90;;;;;;7256172;19;20214;-76
2024/01/25 02:21:10;;;;;;;65.27;8.57;;;9.30;99.90;;;;;;7300633;19;20190;-76
2024/01/25 02:23:36;;;;;;;62.90;8.53;;;9.20;99.90;;;;;;7277947;19;20293;-77
2024/01/25 02:26:01;;;;;;;62.20;7.90;;;9.20;99.90;;;;;;7277094;19;20194;-77
2024/01/25 02:28:27;;;;;;;69.83;8.03;;;9.20;99.90;;;;;;7278625;19;20206;-77
2024/01/25 02:30:53;;;;;;;76.37;9.00;;;9.20;99.90;;;;;;7277864;19;20663;-77
2024/01/25 02:33:19;;;;;;;67.93;8.57;;;9.20;99.90;;;;;;7279037;19;20197;-76
2024/01/25 02:35:44;;;;;;;67.57;9.07;;;9.20;99.90;;;;;;7277425;19;20226;-76
2024/01/25 02:38:10;;;;;;;66.53;9.90;;;9.20;99.90;;;;;;7298926;19;20181;-76
2024/01/25 02:40:36;;;;;;;66.07;8.37;;;9.10;99.90;;;;;;7286653;19;20317;-77
2024/01/25 02:43:01;;;;;;;78.87;9.03;;;9.10;99.90;;;;;;7279108;19;20201;-77
2024/01/25 02:45:27;;;;;;;59.60;7.47;;;9.00;99.90;;;;;;7278197;19;20190;-76
2024/01/25 02:47:53;;;;;;;76.23;8.50;;;9.00;99.90;;;;;;7278152;19;20190;-76
2024/01/25 02:50:19;;;;;;;69.03;8.77;;;8.90;99.90;;;;;;7277959;19;20211;-77
2024/01/25 02:52:44;;;;;;;69.50;9.13;;;8.90;99.90;;;;;;7278166;19;20190;-77
2024/01/25 02:55:10;;;;;;;69.53;9.40;;;8.90;99.90;;;;;;7299786;19;20194;-76
2024/01/25 02:57:36;;;;;;;78.97;8.77;;;8.90;99.90;;;;;;7278793;19;20187;-77
2024/01/25 03:00:01;;;;;;;85.67;9.40;;;8.90;99.90;;;;;;7277248;19;20706;-77
2024/01/25 03:02:27;;;;;;;72.17;8.93;;;8.90;99.90;;;;;;7278757;19;20185;-76
2024/01/25 03:04:53;;;;;;;69.50;8.40;;;8.80;99.90;;;;;;7277813;19;20537;-76
2024/01/25 03:07:18;;;;;;;72.83;9.40;;;8.70;99.90;;;;;;7277881;19;20188;-76
2024/01/25 03:09:44;;;;;;;62.80;7.97;;;8.70;99.90;;;;;;7277517;19;20250;-77
2024/01/25 03:12:10;;;;;;;70.30;9.10;;;8.70;99.90;;;;;;7299009;19;20204;-77
2024/01/25 03:14:36;;;;;;;64.37;8.20;;;8.70;99.90;;;;;;7278772;19;20226;-76
2024/01/25 03:17:01;;;;;;;54.43;8.73;;;8.70;99.90;;;;;;7278081;19;20183;-76
2024/01/25 03:19:28;;;;;;;72.23;8.70;;;8.70;99.90;;;;;;7276873;19;20665;-77
2024/01/25 03:21:54;;;;;;;68.33;8.57;;;8.70;99.90;;;;;;7280557;19;20205;-77
2024/01/25 03:24:21;;;;;;;64.93;8.57;;;8.70;99.90;;;;;;7280888;19;20186;-77
2024/01/25 03:26:46;;;;;;;69.43;9.57;;;8.60;99.90;;;;;;7278411;19;20706;-77
2024/01/25 03:29:12;;;;;;;69.50;8.70;;;8.60;99.90;;;;;;7278590;19;20210;-76
2024/01/25 03:31:38;;;;;;;85.30;9.20;;;8.60;99.90;;;;;;7302648;19;20192;-77
2024/01/25 03:34:04;;;;;;;68.40;9.33;;;8.60;99.90;;;;;;7278922;19;20223;-76
2024/01/25 03:36:31;;;;;;;74.27;8.70;;;8.60;99.90;;;;;;7282874;19;20677;-76
2024/01/25 03:38:57;;;;;;;73.97;8.33;;;8.60;99.90;;;;;;7286957;19;20227;-76
2024/01/25 03:41:23;;;;;;;70.67;9.37;;;8.60;99.90;;;;;;7285708;19;20660;-76
2024/01/25 03:43:49;;;;;;;74.10;8.80;;;8.60;99.90;;;;;;7286551;19;20189;-77
2024/01/25 03:46:15;;;;;;;72.30;8.70;;;8.50;99.90;;;;;;7287626;19;20181;-76
2024/01/25 03:48:41;;;;;;;64.13;8.80;;;8.40;99.90;;;;;;7296236;19;20288;-77
2024/01/25 03:51:07;;;;;;;70.97;7.97;;;8.40;99.90;;;;;;7307745;19;20205;-77
2024/01/25 03:53:33;;;;;;;67.47;8.80;;;8.40;99.90;;;;;;7287411;19;20292;-76
2024/01/25 03:55:59;;;;;;;79.73;9.10;;;8.40;99.90;;;;;;7288226;19;20193;-77
2024/01/25 03:58:25;;;;;;;75.57;9.47;;;8.30;99.90;;;;;;7287563;19;20192;-77
2024/01/25 04:00:50;;;;;;;66.83;8.67;;;8.40;99.90;;;;;;7285750;19;20207;-76
2024/01/25 04:03:16;;;;;;;73.23;9.33;;;8.40;99.90;;;;;;7285774;19;20202;-77
2024/01/25 04:05:42;;;;;;;63.63;8.97;;;8.40;99.90;;;;;;7293257;19;20202;-76
2024/01/25 04:08:07;;;;;;;73.47;8.13;;;8.40;99.90;;;;;;7309793;19;20198;-78
2024/01/25 04:10:33;;;;;;;71.20;9.40;;;8.30;99.90;;;;;;7286434;19;20548;-76
2024/01/25 04:13:04;;;;;;;80.57;9.57;;;8.40;99.90;;;;;;7286344;19;20215;-76
2024/01/25 04:15:30;;;;;;;72.97;8.73;;;8.40;99.90;;;;;;7285785;19;20185;-77
2024/01/25 04:17:56;;;;;;;74.23;9.23;;;8.40;99.90;;;;;;7285594;19;20671;-77
2024/01/25 04:20:22;;;;;;;78.07;10.23;;;8.30;99.90;;;;;;7284972;19;20260;-76
2024/01/25 04:22:48;;;;;;;57.17;7.97;;;8.40;99.90;;;;;;7284986;19;20536;-76
2024/01/25 04:25:13;;;;;;;65.90;8.13;;;8.40;99.90;;;;;;7284740;19;20193;-76
2024/01/25 04:27:39;;;;;;;77.50;9.57;;;8.30;99.90;;;;;;7307403;19;20189;-76
2024/01/25 04:30:06;;;;;;;69.03;8.53;;;8.30;99.90;;;;;;7284549;19;20198;-77
2024/01/25 04:32:32;;;;;;;61.30;8.27;;;8.30;99.90;;;;;;7285275;19;21071;-77
2024/01/25 04:34:58;;;;;;;60.20;8.80;;;8.20;99.90;;;;;;7284935;19;20257;-76
2024/01/25 04:37:24;;;;;;;61.43;8.13;;;8.20;99.90;;;;;;7284936;19;20261;-77
2024/01/25 04:39:50;;;;;;;81.67;9.17;;;8.20;99.90;;;;;;7285428;19;20220;-76
2024/01/25 04:42:16;;;;;;;72.63;9.40;;;8.10;99.90;;;;;;7285576;19;20655;-76
2024/01/25 04:44:41;;;;;;;63.87;9.27;;;8.20;99.90;;;;;;7295216;19;20207;-76
2024/01/25 04:47:08;;;;;;;79.63;8.93;;;8.20;99.90;;;;;;7304037;19;20187;-77
2024/01/25 04:49:34;;;;;;;80.70;9.10;;;8.20;99.90;;;;;;7285447;19;20178;-76
2024/01/25 04:52:00;;;;;;;73.10;9.60;;;8.30;99.90;;;;;;7285254;19;20182;-76
2024/01/25 04:54:26;;;;;;;62.33;9.23;;;8.40;99.90;;;;;;7285050;19;20215;-76
2024/01/25 04:56:51;;;;;;;69.03;8.90;;;8.20;99.90;;;;;;7285065;19;20182;-77
2024/01/25 04:59:17;;;;;;;64.50;8.87;;;8.10;99.90;;;;;;7285624;19;20295;-76
2024/01/25 05:01:43;;;;;;;77.47;9.93;;;8.10;99.90;;;;;;7285971;19;20174;-76
2024/01/25 05:04:08;;;;;;;75.23;9.03;;;8.00;99.90;;;;;;7307015;19;20182;-76
2024/01/25 05:06:34;;;;;;;67.23;8.03;;;8.10;99.90;;;;;;7284809;19;20744;-77
2024/01/25 05:09:00;;;;;;;70.23;8.87;;;7.90;99.90;;;;;;7285796;19;20182;-77
2024/01/25 05:11:25;;;;;;;60.77;8.43;;;7.70;99.90;;;;;;7284216;19;20192;-77
2024/01/25 05:13:51;;;;;;;59.43;8.57;;;7.70;99.90;;;;;;7285011;19;20253;-77
2024/01/25 05:16:17;;;;;;;76.03;8.93;;;7.70;99.90;;;;;;7283469;19;20191;-76
2024/01/25 05:18:42;;;;;;;47.10;8.10;;;7.70;99.90;;;;;;7284571;19;20185;-76
2024/01/25 05:21:08;;;;;;;61.43;7.10;;;7.80;99.90;;;;;;7304702;19;20189;-77
2024/01/25 05:23:34;;;;;;;76.53;9.47;;;7.70;99.90;;;;;;7284263;19;20238;-76
2024/01/25 05:26:01;;;;;;;72.60;9.37;;;7.70;99.90;;;;;;7286255;19;20199;-77
2024/01/25 05:28:27;;;;;;;70.87;8.53;;;7.70;99.90;;;;;;7285145;19;20197;-77
2024/01/25 05:30:53;;;;;;;82.97;10.20;;;7.70;99.90;;;;;;7283825;19;20674;-76
2024/01/25 05:33:18;;;;;;;73.03;9.00;;;7.70;99.90;;;;;;7283959;19;20181;-76
2024/01/25 05:35:44;;;;;;;60.63;8.00;;;7.70;99.90;;;;;;7284608;19;20211;-76
2024/01/25 05:38:10;;;;;;;60.50;8.43;;;7.70;99.90;;;;;;7307563;19;20185;-76
2024/01/25 05:40:35;;;;;;;70.43;8.50;;;7.70;99.90;;;;;;7283390;19;20220;-77
2024/01/25 05:43:01;;;;;;;52.30;7.90;;;7.70;99.90;;;;;;7285071;19;20186;-77
2024/01/25 05:45:27;;;;;;;59.87;8.57;;;7.70;99.90;;;;;;7285811;19;20189;-76
2024/01/25 05:47:52;;;;;;;66.60;10.23;;;7.70;99.90;;;;;;7281079;19;20193;-76
2024/01/25 05:50:18;;;;;;;71.40;10.40;;;7.80;99.90;;;;;;7280945;19;20180;-76
2024/01/25 05:52:44;;;;;;;57.67;9.17;;;7.90;99.90;;;;;;7282001;19;20664;-76
2024/01/25 05:55:10;;;;;;;77.23;9.67;;;7.90;99.90;;;;;;7304096;19;20192;-75
2024/01/25 05:57:36;;;;;;;76.53;10.10;;;7.90;99.90;;;;;;7282340;19;20193;-76
2024/01/25 06:00:03;;;;;;;74.27;9.63;;;7.90;99.90;;;;;;7281184;19;20192;-76
2024/01/25 06:02:33;;;;;;;65.03;9.50;;;7.90;99.90;;;;;;7281965;19;20193;-76
2024/01/25 06:04:59;;;;;;;71.37;10.40;;;7.90;99.90;;;;;;7280194;19;20202;-76
2024/01/25 06:07:26;;;;;;;68.40;9.70;;;8.10;99.90;;;;;;7283235;19;20194;-76
2024/01/25 06:09:52;;;;;;;64.63;9.03;;;8.10;99.90;;;;;;7281149;19;20540;-76
2024/01/25 06:12:18;;;;;;;70.77;10.10;;;8.10;99.90;;;;;;7281097;19;20323;-76
2024/01/25 06:14:44;;;;;;;82.63;14.20;;;8.10;99.90;;;;;;7278606;19;20968;-75
2024/01/25 06:17:10;;;;;;;87.10;15.77;;;8.10;99.90;;;;;;7302353;19;20692;-76
2024/01/25 06:19:35;;;;;;;95.87;16.63;;;8.10;99.90;;;;;;7282674;19;20265;-76
2024/01/25 06:22:02;;;;;;;94.17;18.07;;;8.00;99.90;;;;;;7280318;19;20202;-76
2024/01/25 06:24:28;;;;;;;80.23;12.20;;;8.20;99.90;;;;;;7279997;19;20193;-76
2024/01/25 06:26:54;;;;;;;77.73;12.23;;;8.10;99.90;;;;;;7280784;19;20200;-76
2024/01/25 06:29:20;;;;;;;71.30;14.83;;;8.10;99.90;;;;;;7278759;19;20195;-75
2024/01/25 06:31:45;;;;;;;66.30;14.73;;;8.10;99.90;;;;;;7279018;19;20306;-76
2024/01/25 06:34:11;;;;;;;82.43;13.80;;;8.10;99.90;;;;;;7296047;19;20194;-75
2024/01/25 06:36:37;;;;;;;58.47;15.30;;;8.20;99.90;;;;;;7296345;19;20197;-76
2024/01/25 06:39:06;;;;;;;89.83;15.63;;;8.30;99.90;;;;;;7280606;19;20266;-76
2024/01/25 06:41:32;;;;;;;74.30;15.17;;;8.40;99.90;;;;;;7282066;19;20191;-76
2024/01/25 06:43:59;;;;;;;66.27;14.20;;;8.50;99.90;;;;;;7279339;19;20199;-76
2024/01/25 06:46:25;;;;;;;76.63;16.03;;;8.50;99.90;;;;;;7280882;19;20907;-77
2024/01/25 06:48:51;;;;;;;71.83;13.83;;;8.30;99.90;;;;;;7282311;19;20259;-77
2024/01/25 06:51:17;;;;;;;88.37;15.90;;;8.30;99.90;;;;;;7283366;19;20193;-77
2024/01/25 06:53:42;;;;;;;73.93;17.27;;;8.30;99.90;;;;;;7287992;19;20186;-77
2024/01/25 06:56:08;;;;;;;85.07;14.80;;;8.30;99.90;;;;;;7305229;19;20558;-77
2024/01/25 06:58:34;;;;;;;93.87;16.70;;;8.40;99.90;;;;;;7282796;19;20189;-77
2024/01/25 07:01:00;;;;;;;81.73;16.63;;;8.40;99.90;;;;;;7283502;19;20193;-77
2024/01/25 07:03:25;;;;;;;80.60;16.37;;;8.30;99.90;;;;;;7282442;19;20197;-77
2024/01/25 07:05:51;;;;;;;77.10;15.73;;;8.30;99.90;;;;;;7282073;19;20570;-77
2024/01/25 07:08:17;;;;;;;78.27;16.77;;;8.40;99.90;;;;;;7280363;19;20191;-77
2024/01/25 07:10:44;;;;;;;87.50;20.47;;;8.50;99.90;;;;;;7286030;19;20690;-76
2024/01/25 07:13:09;;;;;;;92.23;18.10;;;8.50;99.90;;;;;;7311382;19;20640;-77
2024/01/25 07:15:35;;;;;;;83.90;18.17;;;8.70;99.90;;;;;;7289888;19;20188;-77
2024/01/25 07:18:01;;;;;;;94.30;21.23;;;8.70;99.90;;;;;;7288967;19;20725;-77
2024/01/25 07:20:27;;;;;;;76.93;19.40;;;8.70;99.90;;;;;;7288506;19;20189;-76
2024/01/25 07:22:53;;;;;;;81.73;17.60;;;8.60;99.90;;;;;;7288530;19;20657;-77
2024/01/25 07:25:18;;;;;;;77.57;18.07;;;8.70;99.90;;;;;;7288541;19;20218;-77
2024/01/25 07:27:45;;;;;;;76.73;17.67;;;8.70;99.90;;;;;;7287284;19;20201;-77
2024/01/25 07:30:12;;;;;;;93.83;21.93;;;8.70;99.90;;;;;;7309024;19;20238;-78
2024/01/25 07:32:39;;;;;;;81.47;20.37;;;8.70;99.90;;;;;;7285751;19;20181;-78
2024/01/25 07:35:05;;;;;;;82.53;19.90;;;8.70;99.90;;;;;;7285373;19;20652;-78
2024/01/25 07:37:31;;;;;;;87.83;18.90;;;8.80;99.90;;;;;;7286871;19;20267;-77
2024/01/25 07:39:57;;;;;;;91.03;21.30;;;8.80;99.90;;;;;;7286465;19;20191;-77
2024/01/25 07:42:22;;;;;;;81.83;20.27;;;8.80;99.90;;;;;;7287462;19;20195;-77
2024/01/25 07:44:48;;;;;;;72.27;17.07;;;8.90;99.90;;;;;;7288462;19;20194;-77
2024/01/25 07:47:14;;;;;;;64.73;17.20;;;9.00;99.90;;;;;;7287672;19;21019;-77
2024/01/25 07:49:43;;;;;;;76.03;17.83;;;9.00;99.90;;;;;;7310336;19;20987;-77
2024/01/25 07:52:08;;;;;;;77.70;17.17;;;9.00;99.90;;;;;;7289222;19;20195;-78
2024/01/25 07:54:34;;;;;;;61.87;17.03;;;9.10;99.90;;;;;;7287104;19;20187;-78
2024/01/25 07:57:00;;;;;;;79.37;16.27;;;9.10;99.90;;;;;;7288684;19;20195;-77
2024/01/25 07:59:26;;;;;;;56.73;15.00;;;9.10;99.90;;;;;;7288075;19;20183;-78
2024/01/25 08:01:51;;;;;;;66.67;14.57;;;9.10;99.90;;;;;;7286766;19;20654;-77
2024/01/25 08:04:17;;;;;;;61.73;14.83;;;9.00;99.90;;;;;;7288188;19;20673;-77
2024/01/25 08:06:43;;;;;;;58.60;16.43;;;8.90;99.90;;;;;;7291459;19;20190;-77
2024/01/25 08:09:08;;;;;;;63.33;16.67;;;8.90;99.90;;;;;;7309208;19;20709;-77
2024/01/25 08:11:35;;;;;;;65.93;17.00;;;9.00;99.90;;;;;;7287096;19;20243;-78
2024/01/25 08:14:00;;;;;;;79.43;22.37;;;8.90;99.90;;;;;;7287964;19;20228;-77
2024/01/25 08:16:26;;;;;;;75.57;21.20;;;9.00;99.90;;;;;;7287291;19;20195;-78
2024/01/25 08:18:52;;;;;;;82.80;21.00;;;8.90;99.90;;;;;;7286901;19;20266;-78
2024/01/25 08:21:17;;;;;;;66.07;20.00;;;8.90;99.90;;;;;;7284743;19;20670;-78
2024/01/25 08:23:43;;;;;;;67.60;18.83;;;8.90;99.90;;;;;;7287328;19;20194;-78
2024/01/25 08:26:09;;;;;;;61.07;17.03;;;8.90;99.90;;;;;;7307724;19;20828;-78
2024/01/25 08:28:44;;;;;;;63.13;15.70;;;9.00;99.90;;;;;;7285514;19;20266;-77
2024/01/25 08:31:12;;;;;;;64.53;18.10;;;9.00;99.90;;;;;;7272441;19;20651;-77
2024/01/25 08:33:43;;;;;;;56.97;16.90;;;9.00;99.90;;;;;;7307778;19;20198;-78
2024/01/25 08:36:10;;;;;;;63.47;17.20;;;9.10;99.90;;;;;;7286050;19;20217;-77
2024/01/25 08:38:36;;;;;;;74.63;16.97;;;9.00;99.90;;;;;;7285419;19;20253;-77
2024/01/25 08:41:01;;;;;;;64.60;17.27;;;9.20;99.90;;;;;;7288123;19;20209;-77
2024/01/25 08:43:27;;;;;;;71.37;18.37;;;9.20;99.90;;;;;;7287074;19;20187;-77
2024/01/25 08:45:53;;;;;;;67.00;18.07;;;9.30;99.90;;;;;;7284085;19;20202;-77
2024/01/25 08:48:19;;;;;;;66.67;18.53;;;9.50;99.90;;;;;;7283980;19;20637;-77
2024/01/25 08:50:45;;;;;;;70.90;18.90;;;9.60;99.90;;;;;;7285182;19;20197;-77
2024/01/25 08:53:10;;;;;;;77.47;17.90;;;9.60;99.90;;;;;;7308225;19;20188;-77
2024/01/25 08:55:36;;;;;;;73.47;19.47;;;9.60;99.90;;;;;;7285389;19;20247;-77
2024/01/25 08:58:02;;;;;;;81.03;20.20;;;9.60;99.90;;;;;;7284066;19;20197;-77
2024/01/25 09:00:27;;;;;;;75.47;20.17;;;9.60;99.90;;;;;;7284831;19;20966;-77
2024/01/25 09:02:53;;;;;;;75.13;19.47;;;9.80;99.90;;;;;;7285360;19;20211;-77
2024/01/25 09:05:19;;;;;;;83.90;22.30;;;9.80;99.90;;;;;;7286342;19;20204;-77
2024/01/25 09:07:45;;;;;;;80.00;21.23;;;9.90;99.90;;;;;;7285721;19;20190;-77
2024/01/25 09:10:11;;;;;;;88.50;23.03;;;10.00;99.90;;;;;;7306726;19;20206;-78
2024/01/25 09:12:37;;;;;;;78.87;22.60;;;10.10;99.90;;;;;;7287130;19;20188;-77
2024/01/25 09:15:03;;;;;;;80.23;22.37;;;10.20;99.90;;;;;;7285496;19;20193;-77
2024/01/25 09:17:29;;;;;;;80.73;22.23;;;10.30;99.90;;;;;;7284048;19;20193;-77
2024/01/25 09:19:58;;;;;;;80.83;22.63;;;10.30;99.90;;;;;;7283942;19;20759;-78
2024/01/25 09:22:24;;;;;;;88.10;23.87;;;10.20;99.90;;;;;;7284322;19;20603;-77
2024/01/25 09:24:50;;;;;;;87.03;24.13;;;10.20;99.90;;;;;;7286299;19;20191;-77
2024/01/25 09:27:15;;;;;;;94.70;23.40;;;10.40;99.90;;;;;;7284401;19;20213;-77
2024/01/25 09:29:42;;;;;;;91.13;23.17;;;10.40;99.90;;;;;;7305487;19;20207;-78
2024/01/25 09:32:08;;;;;;;78.33;21.83;;;10.40;99.90;;;;;;7286740;19;20214;-78
2024/01/25 09:34:38;;;;;;;87.23;22.40;;;10.40;99.90;;;;;;7282662;19;20193;-78
2024/01/25 09:37:05;;;;;;;77.93;21.20;;;10.40;99.90;;;;;;7284388;19;20241;-78
2024/01/25 09:39:32;;;;;;;72.50;20.63;;;10.50;99.90;;;;;;7283780;19;20202;-78
2024/01/25 09:41:58;;;;;;;73.10;20.50;;;10.70;99.90;;;;;;7284088;19;20195;-77
2024/01/25 09:44:24;;;;;;;71.47;20.63;;;10.60;99.90;;;;;;7283543;19;20222;-78
2024/01/25 09:46:51;;;;;;;69.53;20.17;;;10.60;99.90;;;;;;7284523;19;20214;-78
2024/01/25 09:49:17;;;;;;;78.27;21.60;;;10.70;99.90;;;;;;7283869;19;20572;-77
2024/01/25 09:51:44;;;;;;;59.17;19.13;;;10.80;99.90;;;;;;7289100;19;20203;-77
2024/01/25 09:54:10;;;;;;;67.80;19.70;;;10.80;99.90;;;;;;7306229;19;20879;-78
2024/01/25 09:56:36;;;;;;;75.53;23.27;;;10.70;99.90;;;;;;7283339;19;20380;-78
2024/01/25 09:59:04;;;;;;;77.10;19.80;;;10.60;99.90;;;;;;7284439;19;20201;-78
2024/01/25 10:01:30;;;;;;;73.40;19.30;;;10.70;99.90;;;;;;7281649;19;20201;-78
2024/01/25 10:03:56;;;;;;;73.80;20.27;;;10.80;99.90;;;;;;7282998;19;20212;-78
2024/01/25 10:06:23;;;;;;;55.77;16.93;;;11.00;99.90;;;;;;7283905;19;20306;-78
2024/01/25 10:08:49;;;;;;;55.60;15.10;;;11.10;99.90;;;;;;7283195;19;20584;-78
2024/01/25 10:11:15;;;;;;;52.07;15.60;;;11.00;99.90;;;;;;7283484;19;20210;-77
2024/01/25 10:13:42;;;;;;;58.20;14.50;;;11.20;99.90;;;;;;7304938;19;20202;-78
2024/01/25 10:16:15;;;;;;;50.13;14.83;;;11.30;99.90;;;;;;7282797;19;20213;-77
2024/01/25 10:18:45;;;;;;;50.20;13.57;;;11.10;99.90;;;;;;7284604;19;20220;-77
2024/01/25 10:21:11;;;;;;;50.03;14.73;;;10.80;99.90;;;;;;7282973;19;20261;-77
2024/01/25 10:23:38;;;;;;;50.27;16.40;;;10.90;99.90;;;;;;7282340;19;20189;-77
2024/01/25 10:26:03;;;;;;;63.67;20.43;;;11.20;99.90;;;;;;7283847;19;20238;-78
2024/01/25 10:28:31;;;;;;;59.10;17.77;;;11.40;99.90;;;;;;7283464;19;20191;-77
2024/01/25 10:31:04;;;;;;;53.77;16.73;;;11.50;99.90;;;;;;7281595;19;20189;-77
2024/01/25 10:33:30;;;;;;;39.30;12.50;;;11.40;99.90;;;;;;7282629;19;20282;-78
2024/01/25 10:36:02;;;;;;;32.70;10.30;;;11.00;99.90;;;;;;7283042;19;20252;-77
2024/01/25 10:38:32;;;;;;;48.43;11.77;;;10.90;99.90;;;;;;7282046;19;20223;-77
2024/01/25 10:41:01;;;;;;;42.00;11.50;;;10.90;99.90;;;;;;7282275;19;20206;-77
2024/01/25 10:43:28;;;;;;;37.40;11.10;;;11.10;99.90;;;;;;7282211;19;20193;-77
2024/01/25 10:45:57;;;;;;;40.30;12.03;;;11.30;99.90;;;;;;7279727;19;20197;-77
2024/01/25 10:48:23;;;;;;;36.40;10.33;;;11.50;99.90;;;;;;7282001;19;20796;-77
2024/01/25 10:50:48;;;;;;;38.80;9.97;;;11.60;99.90;;;;;;7279642;19;20202;-78
2024/01/25 10:53:16;;;;;;;39.33;10.37;;;11.60;99.90;;;;;;7283191;19;20722;-78
2024/01/25 10:55:43;;;;;;;45.50;10.90;;;11.60;99.90;;;;;;7298068;19;20181;-76
2024/01/25 10:58:08;;;;;;;37.10;11.33;;;11.70;99.90;;;;;;7299363;19;20193;-78
2024/01/25 11:00:35;;;;;;;42.43;10.57;;;11.70;99.90;;;;;;7282365;19;20294;-78
2024/01/25 11:03:01;;;;;;;42.80;10.83;;;11.70;99.90;;;;;;7281971;19;20641;-78
2024/01/25 11:05:27;;;;;;;48.40;12.23;;;11.50;99.90;;;;;;7280836;19;20797;-78
2024/01/25 11:07:53;;;;;;;45.10;12.80;;;11.50;99.90;;;;;;7282377;19;20211;-78
2024/01/25 11:10:21;;;;;;;47.53;11.40;;;11.50;99.90;;;;;;7278253;19;20185;-77
2024/01/25 11:13:00;;;;;;;48.67;11.57;;;11.50;99.90;;;;;;7281393;19;20189;-77
2024/01/25 11:15:36;;;;;;;45.87;12.80;;;11.60;99.90;;;;;;7281817;19;20227;-78
2024/01/25 11:18:06;;;;;;;42.40;11.60;;;11.70;99.90;;;;;;7280698;19;20214;-78
2024/01/25 11:20:33;;;;;;;45.67;12.57;;;11.90;99.90;;;;;;7280004;19;20203;-77
2024/01/25 11:23:02;;;;;;;48.80;12.67;;;12.00;99.90;;;;;;7281199;19;20203;-78
2024/01/25 11:25:31;;;;;;;38.00;11.20;;;12.10;99.90;;;;;;7281236;19;20698;-77
2024/01/25 11:27:58;;;;;;;48.90;12.70;;;12.00;99.90;;;;;;7280624;19;20774;-78
2024/01/25 11:30:23;;;;;;;36.37;12.60;;;12.10;99.90;;;;;;7280457;19;20193;-77
2024/01/25 11:32:49;;;;;;;39.73;11.77;;;12.10;99.90;;;;;;7282120;19;20202;-78
2024/01/25 11:35:16;;;;;;;39.40;11.47;;;12.30;99.90;;;;;;7280810;19;21743;-78
2024/01/25 11:37:46;;;;;;;38.70;11.37;;;12.40;99.90;;;;;;7298543;19;20196;-77
2024/01/25 11:40:12;;;;;;;42.67;12.30;;;12.50;99.90;;;;;;7302570;19;20293;-78
2024/01/25 11:42:40;;;;;;;48.83;11.70;;;12.70;99.90;;;;;;7280682;19;20197;-78
2024/01/25 11:45:09;;;;;;;40.80;12.90;;;12.90;99.90;;;;;;7280094;19;20196;-78
2024/01/25 11:47:36;;;;;;;41.43;12.27;;;12.80;99.90;;;;;;7279857;19;20708;-78
2024/01/25 11:50:02;;;;;;;45.10;12.90;;;12.80;99.90;;;;;;7280051;19;20201;-79
2024/01/25 11:52:28;;;;;;;44.50;12.90;;;12.70;99.90;;;;;;7281734;19;20192;-78
2024/01/25 11:54:54;;;;;;;45.97;12.40;;;12.70;99.90;;;;;;7280599;19;20221;-79
2024/01/25 11:57:20;;;;;;;48.27;13.80;;;12.60;99.90;;;;;;7283603;19;20191;-78
2024/01/25 11:59:46;;;;;;;40.83;13.10;;;12.50;99.90;;;;;;7287183;19;20194;-78
2024/01/25 12:02:13;;;;;;;41.77;13.57;;;12.50;99.90;;;;;;7306592;19;20181;-78
2024/01/25 12:04:40;;;;;;;46.87;13.80;;;12.50;99.90;;;;;;7310253;19;20692;-78
2024/01/25 12:07:05;;;;;;;45.23;11.87;;;12.50;99.90;;;;;;7287046;19;20190;-79
2024/01/25 12:09:31;;;;;;;43.63;11.77;;;12.50;99.90;;;;;;7285998;19;20215;-78
2024/01/25 12:11:57;;;;;;;31.10;10.27;;;12.40;99.90;;;;;;7287137;19;20204;-78
2024/01/25 12:14:26;;;;;;;35.67;9.93;;;12.30;99.90;;;;;;7287935;19;20202;-79
2024/01/25 12:16:51;;;;;;;34.03;11.47;;;12.20;99.90;;;;;;7287963;19;20197;-78
2024/01/25 12:19:17;;;;;;;37.27;9.93;;;12.30;99.90;;;;;;7288277;19;20238;-78
2024/01/25 12:21:46;;;;;;;32.57;9.50;;;12.20;99.90;;;;;;7301270;19;20211;-78
2024/01/25 12:24:12;;;;;;;27.80;8.37;;;12.20;99.90;;;;;;7308894;19;20191;-78
2024/01/25 12:26:38;;;;;;;30.07;9.33;;;12.20;99.90;;;;;;7298207;19;20630;-79
2024/01/25 12:29:10;;;;;;;26.83;8.87;;;12.10;99.90;;;;;;7287389;19;20942;-79
2024/01/25 12:31:36;;;;;;;28.20;8.40;;;12.00;99.90;;;;;;7286475;19;20188;-79
2024/01/25 12:34:02;;;;;;;28.20;8.33;;;12.00;99.90;;;;;;7287280;19;20191;-78